createdAt,value
2018-05-13T00:00:16.092Z,60.29
2018-05-13T00:00:47.299Z,60.42
2018-05-13T00:01:18.575Z,60.74
2018-05-13T00:01:49.816Z,60.80
2018-05-13T00:02:21.069Z,61.00
2018-05-13T00:02:52.279Z,62.05
2018-05-13T00:03:23.508Z,61.84
2018-05-13T00:03:54.712Z,61.09
2018-05-13T00:04:25.951Z,60.69
2018-05-13T00:04:57.174Z,61.67
2018-05-13T00:05:28.403Z,60.98
2018-05-13T00:05:59.614Z,61.12
2018-05-13T00:06:30.825Z,60.62
2018-05-13T00:07:02.761Z,60.56
2018-05-13T00:07:33.957Z,59.98
2018-05-13T00:08:05.296Z,61.39
2018-05-13T00:08:36.520Z,59.59
2018-05-13T00:09:07.733Z,59.44
2018-05-13T00:09:38.936Z,59.59
2018-05-13T00:10:10.150Z,59.55
2018-05-13T00:10:41.353Z,59.61
2018-05-13T00:11:12.564Z,58.57
2018-05-13T00:11:44.377Z,59.31
2018-05-13T00:12:15.580Z,59.12
2018-05-13T00:12:46.814Z,58.95
2018-05-13T00:13:18.134Z,59.17
2018-05-13T00:13:49.305Z,60.36
2018-05-13T00:14:20.531Z,60.12
2018-05-13T00:14:51.745Z,59.91
2018-05-13T00:15:23.023Z,60.12
2018-05-13T00:15:54.245Z,59.89
2018-05-13T00:16:25.444Z,59.98
2018-05-13T00:16:56.652Z,60.14
2018-05-13T00:17:27.861Z,59.69
2018-05-13T00:17:59.074Z,59.77
2018-05-13T00:18:30.272Z,60.59
2018-05-13T00:19:01.488Z,60.69
2018-05-13T00:19:32.708Z,60.51
2018-05-13T00:20:03.924Z,60.84
2018-05-13T00:20:35.192Z,60.97
2018-05-13T00:21:06.401Z,60.02
2018-05-13T00:21:37.613Z,59.86
2018-05-13T00:22:08.827Z,60.01
2018-05-13T00:22:40.600Z,60.08
2018-05-13T00:23:11.813Z,59.96
2018-05-13T00:23:43.022Z,59.41
2018-05-13T00:24:14.237Z,59.42
2018-05-13T00:24:45.453Z,59.67
2018-05-13T00:25:16.690Z,59.56
2018-05-13T00:25:48.031Z,59.57
2018-05-13T00:26:19.258Z,59.76
2018-05-13T00:26:50.505Z,59.68
2018-05-13T00:27:21.733Z,59.90
2018-05-13T00:27:52.942Z,60.05
2018-05-13T00:28:24.172Z,59.46
2018-05-13T00:28:55.380Z,59.67
2018-05-13T00:29:26.590Z,59.76
2018-05-13T00:29:57.793Z,59.93
2018-05-13T00:30:29.031Z,59.99
2018-05-13T00:31:00.261Z,59.76
2018-05-13T00:31:31.468Z,60.13
2018-05-13T00:32:02.723Z,60.31
2018-05-13T00:32:33.988Z,60.31
2018-05-13T00:33:05.205Z,59.87
2018-05-13T00:33:36.404Z,59.71
2018-05-13T00:34:07.628Z,60.49
2018-05-13T00:34:38.841Z,60.05
2018-05-13T00:35:10.053Z,60.88
2018-05-13T00:35:41.254Z,59.98
2018-05-13T00:36:12.467Z,59.86
2018-05-13T00:36:43.684Z,59.66
2018-05-13T00:37:14.874Z,59.90
2018-05-13T00:37:46.104Z,59.54
2018-05-13T00:38:17.335Z,59.45
2018-05-13T00:38:48.563Z,59.52
2018-05-13T00:39:19.805Z,59.57
2018-05-13T00:39:51.009Z,59.67
2018-05-13T00:40:22.217Z,61.22
2018-05-13T00:40:53.434Z,60.33
2018-05-13T00:41:24.662Z,60.06
2018-05-13T00:41:55.891Z,59.73
2018-05-13T00:42:27.133Z,59.53
2018-05-13T00:42:58.507Z,59.78
2018-05-13T00:43:29.722Z,59.52
2018-05-13T00:44:01.911Z,59.86
2018-05-13T00:44:33.209Z,59.84
2018-05-13T00:45:04.420Z,59.74
2018-05-13T00:45:35.636Z,59.74
2018-05-13T00:46:06.885Z,58.71
2018-05-13T00:46:38.090Z,58.81
2018-05-13T00:47:09.297Z,59.19
2018-05-13T00:47:40.498Z,59.83
2018-05-13T00:48:11.747Z,59.70
2018-05-13T00:48:42.957Z,59.16
2018-05-13T00:49:14.160Z,58.92
2018-05-13T00:49:45.383Z,59.27
2018-05-13T00:50:16.574Z,59.23
2018-05-13T00:50:47.785Z,59.26
2018-05-13T00:51:18.998Z,59.38
2018-05-13T00:51:50.206Z,59.15
2018-05-13T00:52:21.454Z,59.20
2018-05-13T00:52:52.695Z,59.54
2018-05-13T00:53:23.943Z,59.73
2018-05-13T00:53:55.157Z,59.90
2018-05-13T00:54:26.365Z,60.30
2018-05-13T00:54:57.573Z,60.34
2018-05-13T00:55:28.880Z,60.29
2018-05-13T00:56:00.091Z,59.79
2018-05-13T00:56:31.302Z,60.07
2018-05-13T00:57:02.505Z,60.71
2018-05-13T00:57:33.769Z,61.01
2018-05-13T00:58:05.532Z,60.48
2018-05-13T00:58:36.737Z,60.62
2018-05-13T00:59:07.940Z,61.80
2018-05-13T00:59:39.163Z,61.01
2018-05-13T01:00:10.405Z,61.08
2018-05-13T01:00:41.636Z,61.01
2018-05-13T01:01:12.846Z,61.05
2018-05-13T01:01:44.050Z,61.20
2018-05-13T01:02:15.253Z,60.23
2018-05-13T01:02:46.561Z,59.87
2018-05-13T01:03:17.797Z,58.80
2018-05-13T01:03:49.538Z,59.12
2018-05-13T01:04:20.734Z,59.61
2018-05-13T01:04:51.934Z,60.16
2018-05-13T01:05:23.194Z,60.76
2018-05-13T01:05:54.407Z,61.43
2018-05-13T01:06:25.608Z,62.09
2018-05-13T01:06:56.808Z,62.94
2018-05-13T01:07:28.052Z,65.05
2018-05-13T01:07:59.289Z,63.32
2018-05-13T01:08:30.493Z,62.49
2018-05-13T01:09:01.702Z,62.38
2018-05-13T01:09:32.904Z,62.37
2018-05-13T01:10:04.099Z,61.22
2018-05-13T01:10:35.317Z,61.03
2018-05-13T01:11:06.521Z,61.31
2018-05-13T01:11:37.751Z,60.83
2018-05-13T01:12:08.959Z,60.80
2018-05-13T01:12:40.201Z,60.03
2018-05-13T01:13:11.410Z,59.21
2018-05-13T01:13:42.628Z,58.83
2018-05-13T01:14:13.814Z,59.01
2018-05-13T01:14:45.022Z,59.65
2018-05-13T01:15:16.226Z,59.77
2018-05-13T01:15:47.458Z,60.13
2018-05-13T01:16:18.666Z,60.04
2018-05-13T01:16:49.876Z,60.22
2018-05-13T01:17:21.089Z,60.14
2018-05-13T01:17:52.318Z,62.07
2018-05-13T01:18:23.569Z,60.42
2018-05-13T01:18:54.787Z,60.93
2018-05-13T01:19:25.997Z,62.14
2018-05-13T01:19:57.214Z,61.17
2018-05-13T01:20:28.466Z,60.97
2018-05-13T01:20:59.741Z,61.48
2018-05-13T01:21:30.991Z,62.59
2018-05-13T01:22:02.201Z,62.26
2018-05-13T01:22:33.410Z,63.41
2018-05-13T01:23:04.634Z,62.74
2018-05-13T01:23:35.859Z,63.66
2018-05-13T01:24:07.133Z,63.86
2018-05-13T01:24:38.365Z,63.85
2018-05-13T01:25:09.604Z,64.93
2018-05-13T01:25:40.841Z,65.28
2018-05-13T01:26:12.076Z,66.59
2018-05-13T01:26:43.285Z,65.60
2018-05-13T01:27:14.489Z,65.81
2018-05-13T01:27:45.697Z,68.71
2018-05-13T01:28:17.045Z,68.98
2018-05-13T01:28:48.253Z,67.92
2018-05-13T01:29:19.506Z,68.60
2018-05-13T01:29:50.714Z,68.66
2018-05-13T01:30:21.921Z,69.35
2018-05-13T01:30:53.161Z,68.76
2018-05-13T01:31:24.360Z,69.00
2018-05-13T01:31:56.304Z,70.60
2018-05-13T01:32:28.252Z,70.05
2018-05-13T01:33:00.214Z,70.54
2018-05-13T01:33:31.427Z,69.74
2018-05-13T01:34:02.636Z,70.10
2018-05-13T01:34:33.845Z,71.04
2018-05-13T01:35:05.137Z,71.05
2018-05-13T01:35:36.359Z,72.61
2018-05-13T01:36:07.635Z,71.96
2018-05-13T01:36:38.834Z,72.31
2018-05-13T01:37:10.054Z,73.15
2018-05-13T01:37:41.297Z,73.81
2018-05-13T01:38:12.509Z,74.07
2018-05-13T01:38:43.713Z,75.29
2018-05-13T01:39:14.923Z,75.82
2018-05-13T01:39:46.141Z,77.09
2018-05-13T01:40:17.465Z,77.05
2018-05-13T01:40:48.678Z,76.24
2018-05-13T01:41:19.947Z,76.92
2018-05-13T01:41:51.162Z,77.63
2018-05-13T01:42:22.429Z,76.76
2018-05-13T01:42:54.469Z,75.85
2018-05-13T01:43:25.696Z,76.28
2018-05-13T01:43:56.910Z,76.91
2018-05-13T01:44:28.128Z,76.82
2018-05-13T01:44:59.334Z,76.62
2018-05-13T01:45:30.546Z,76.80
2018-05-13T01:46:01.755Z,76.89
2018-05-13T01:46:32.996Z,76.84
2018-05-13T01:47:05.284Z,77.76
2018-05-13T01:47:36.530Z,77.30
2018-05-13T01:48:07.816Z,76.88
2018-05-13T01:48:39.029Z,77.98
2018-05-13T01:49:10.281Z,78.52
2018-05-13T01:49:41.509Z,79.26
2018-05-13T01:50:12.708Z,78.97
2018-05-13T01:50:43.916Z,79.35
2018-05-13T01:51:15.129Z,79.87
2018-05-13T01:51:46.342Z,79.53
2018-05-13T01:52:17.569Z,79.94
2018-05-13T01:52:48.780Z,80.26
2018-05-13T01:53:20.036Z,80.82
2018-05-13T01:53:51.245Z,81.42
2018-05-13T01:54:22.453Z,81.52
2018-05-13T01:54:53.693Z,81.83
2018-05-13T01:55:24.905Z,82.58
2018-05-13T01:55:56.106Z,83.04
2018-05-13T01:56:27.316Z,82.65
2018-05-13T01:56:58.561Z,82.32
2018-05-13T01:57:29.817Z,82.26
2018-05-13T01:58:01.073Z,82.32
2018-05-13T01:58:32.288Z,82.31
2018-05-13T01:59:03.503Z,82.16
2018-05-13T01:59:34.734Z,82.42
2018-05-13T02:00:06.036Z,81.83
2018-05-13T02:00:40.498Z,81.59
2018-05-13T02:01:11.777Z,82.04
2018-05-13T02:01:43.067Z,82.64
2018-05-13T02:02:14.266Z,82.83
2018-05-13T02:02:45.476Z,82.76
2018-05-13T02:03:16.728Z,82.92
2018-05-13T02:03:47.932Z,82.91
2018-05-13T02:04:19.140Z,82.70
2018-05-13T02:04:50.349Z,82.79
2018-05-13T02:05:21.546Z,82.96
2018-05-13T02:05:52.762Z,82.99
2018-05-13T02:06:24.044Z,82.83
2018-05-13T02:06:55.305Z,82.01
2018-05-13T02:07:26.509Z,82.15
2018-05-13T02:07:57.721Z,82.65
2018-05-13T02:08:28.929Z,82.60
2018-05-13T02:09:00.158Z,82.35
2018-05-13T02:09:32.036Z,82.35
2018-05-13T02:10:03.253Z,83.13
2018-05-13T02:10:34.462Z,83.64
2018-05-13T02:11:05.670Z,83.62
2018-05-13T02:11:36.929Z,83.28
2018-05-13T02:12:08.352Z,83.31
2018-05-13T02:12:39.568Z,83.18
2018-05-13T02:13:10.786Z,83.16
2018-05-13T02:13:42.017Z,83.15
2018-05-13T02:14:13.241Z,83.18
2018-05-13T02:14:44.458Z,83.22
2018-05-13T02:15:15.669Z,83.27
2018-05-13T02:15:47.013Z,83.33
2018-05-13T02:16:18.224Z,83.65
2018-05-13T02:16:49.473Z,83.88
2018-05-13T02:17:20.694Z,83.87
2018-05-13T02:17:51.909Z,83.86
2018-05-13T02:18:23.141Z,84.25
2018-05-13T02:18:54.385Z,84.26
2018-05-13T02:19:27.372Z,84.38
2018-05-13T02:19:58.603Z,84.30
2018-05-13T02:20:29.924Z,84.32
2018-05-13T02:21:01.204Z,84.28
2018-05-13T02:21:32.481Z,84.42
2018-05-13T02:22:04.545Z,84.64
2018-05-13T02:22:35.808Z,84.86
2018-05-13T02:23:07.017Z,84.89
2018-05-13T02:23:38.221Z,84.87
2018-05-13T02:24:09.428Z,85.04
2018-05-13T02:24:40.633Z,85.08
2018-05-13T02:25:11.845Z,85.26
2018-05-13T02:25:43.053Z,85.33
2018-05-13T02:26:14.260Z,85.46
2018-05-13T02:26:45.466Z,85.24
2018-05-13T02:27:16.712Z,85.34
2018-05-13T02:27:47.981Z,85.44
2018-05-13T02:28:19.225Z,85.10
2018-05-13T02:28:50.440Z,85.31
2018-05-13T02:29:21.654Z,84.88
2018-05-13T02:29:53.013Z,84.77
2018-05-13T02:30:24.245Z,84.86
2018-05-13T02:30:55.472Z,84.88
2018-05-13T02:31:26.729Z,85.25
2018-05-13T02:31:57.946Z,85.49
2018-05-13T02:32:29.145Z,85.85
2018-05-13T02:33:00.406Z,85.64
2018-05-13T02:33:31.617Z,85.55
2018-05-13T02:34:02.830Z,85.59
2018-05-13T02:34:34.046Z,85.79
2018-05-13T02:35:05.265Z,85.71
2018-05-13T02:35:36.481Z,85.86
2018-05-13T02:36:07.707Z,85.97
2018-05-13T02:36:38.931Z,86.17
2018-05-13T02:37:10.230Z,86.31
2018-05-13T02:37:41.433Z,86.36
2018-05-13T02:38:12.681Z,86.42
2018-05-13T02:38:43.889Z,86.53
2018-05-13T02:39:15.094Z,86.66
2018-05-13T02:39:46.657Z,86.72
2018-05-13T02:40:17.888Z,86.76
2018-05-13T02:40:49.197Z,86.83
2018-05-13T02:41:20.441Z,86.83
2018-05-13T02:41:51.674Z,86.91
2018-05-13T02:42:22.883Z,86.79
2018-05-13T02:42:54.167Z,86.87
2018-05-13T02:43:25.463Z,86.98
2018-05-13T02:43:56.740Z,86.96
2018-05-13T02:44:27.959Z,87.07
2018-05-13T02:44:59.182Z,87.30
2018-05-13T02:45:30.394Z,87.32
2018-05-13T02:46:01.601Z,87.44
2018-05-13T02:46:32.816Z,87.30
2018-05-13T02:47:04.789Z,87.17
2018-05-13T02:47:36.025Z,86.95
2018-05-13T02:48:07.259Z,87.05
2018-05-13T02:48:38.505Z,86.88
2018-05-13T02:49:09.733Z,86.97
2018-05-13T02:49:40.949Z,87.10
2018-05-13T02:50:12.153Z,86.57
2018-05-13T02:50:43.376Z,86.17
2018-05-13T02:51:14.663Z,86.35
2018-05-13T02:51:45.901Z,86.88
2018-05-13T02:52:17.113Z,87.01
2018-05-13T02:52:48.341Z,87.03
2018-05-13T02:53:19.556Z,86.76
2018-05-13T02:53:50.780Z,86.97
2018-05-13T02:54:22.009Z,87.19
2018-05-13T02:54:53.263Z,86.66
2018-05-13T02:55:24.493Z,86.75
2018-05-13T02:55:55.709Z,87.02
2018-05-13T02:56:26.972Z,86.93
2018-05-13T02:56:58.204Z,87.08
2018-05-13T02:57:29.408Z,87.07
2018-05-13T02:58:00.623Z,86.74
2018-05-13T02:58:31.844Z,86.88
2018-05-13T02:59:03.082Z,86.87
2018-05-13T02:59:34.302Z,86.69
2018-05-13T03:00:05.520Z,86.62
2018-05-13T03:00:36.740Z,86.80
2018-05-13T03:01:08.657Z,86.84
2018-05-13T03:01:39.889Z,86.80
2018-05-13T03:02:11.115Z,87.02
2018-05-13T03:02:42.376Z,87.03
2018-05-13T03:03:13.584Z,87.06
2018-05-13T03:03:44.794Z,87.01
2018-05-13T03:04:16.830Z,87.10
2018-05-13T03:04:48.087Z,87.25
2018-05-13T03:05:19.305Z,87.09
2018-05-13T03:05:50.518Z,87.34
2018-05-13T03:06:21.762Z,86.70
2018-05-13T03:06:52.990Z,86.86
2018-05-13T03:07:24.233Z,87.11
2018-05-13T03:07:55.538Z,87.20
2018-05-13T03:08:26.752Z,87.22
2018-05-13T03:08:57.957Z,87.03
2018-05-13T03:09:29.217Z,87.04
2018-05-13T03:10:00.421Z,87.02
2018-05-13T03:10:31.633Z,86.81
2018-05-13T03:11:02.830Z,86.71
2018-05-13T03:11:34.053Z,86.95
2018-05-13T03:12:05.274Z,86.83
2018-05-13T03:12:36.485Z,86.86
2018-05-13T03:13:07.715Z,86.95
2018-05-13T03:13:38.929Z,87.23
2018-05-13T03:14:10.146Z,87.32
2018-05-13T03:14:41.391Z,87.49
2018-05-13T03:15:12.614Z,87.57
2018-05-13T03:15:43.888Z,87.50
2018-05-13T03:16:15.116Z,87.17
2018-05-13T03:16:46.358Z,87.12
2018-05-13T03:17:17.568Z,87.15
2018-05-13T03:17:48.786Z,87.29
2018-05-13T03:18:20.004Z,87.28
2018-05-13T03:18:51.273Z,87.25
2018-05-13T03:19:22.490Z,87.33
2018-05-13T03:19:54.379Z,87.34
2018-05-13T03:20:25.609Z,87.35
2018-05-13T03:20:56.871Z,87.42
2018-05-13T03:21:28.100Z,87.20
2018-05-13T03:21:59.308Z,87.06
2018-05-13T03:22:30.508Z,86.92
2018-05-13T03:23:01.721Z,86.22
2018-05-13T03:23:32.926Z,86.01
2018-05-13T03:24:04.178Z,85.89
2018-05-13T03:24:35.395Z,85.91
2018-05-13T03:25:06.614Z,86.05
2018-05-13T03:25:37.863Z,85.92
2018-05-13T03:26:09.129Z,85.86
2018-05-13T03:26:41.472Z,86.01
2018-05-13T03:27:12.706Z,86.28
2018-05-13T03:27:44.677Z,86.51
2018-05-13T03:28:15.966Z,86.50
2018-05-13T03:28:47.236Z,86.58
2018-05-13T03:29:18.487Z,86.58
2018-05-13T03:29:49.738Z,86.71
2018-05-13T03:30:20.953Z,86.80
2018-05-13T03:30:52.192Z,86.69
2018-05-13T03:31:23.475Z,86.63
2018-05-13T03:31:55.298Z,86.59
2018-05-13T03:32:26.526Z,86.83
2018-05-13T03:32:57.739Z,86.63
2018-05-13T03:33:28.969Z,86.08
2018-05-13T03:34:00.192Z,85.96
2018-05-13T03:34:31.434Z,85.50
2018-05-13T03:35:02.702Z,85.42
2018-05-13T03:35:33.909Z,85.15
2018-05-13T03:36:05.131Z,84.81
2018-05-13T03:36:36.357Z,85.21
2018-05-13T03:37:07.593Z,85.41
2018-05-13T03:37:38.873Z,84.17
2018-05-13T03:38:10.097Z,84.44
2018-05-13T03:38:41.333Z,84.60
2018-05-13T03:39:12.583Z,84.90
2018-05-13T03:39:43.813Z,85.20
2018-05-13T03:40:15.043Z,85.13
2018-05-13T03:40:46.266Z,84.93
2018-05-13T03:41:17.478Z,84.87
2018-05-13T03:41:48.856Z,84.88
2018-05-13T03:42:20.112Z,84.95
2018-05-13T03:42:51.321Z,84.34
2018-05-13T03:43:22.525Z,84.08
2018-05-13T03:43:53.753Z,84.21
2018-05-13T03:44:24.996Z,84.07
2018-05-13T03:44:56.206Z,83.79
2018-05-13T03:45:27.414Z,83.72
2018-05-13T03:45:59.202Z,83.94
2018-05-13T03:46:30.462Z,83.87
2018-05-13T03:47:01.674Z,84.10
2018-05-13T03:47:32.929Z,84.27
2018-05-13T03:48:04.197Z,84.39
2018-05-13T03:48:35.462Z,83.66
2018-05-13T03:49:06.682Z,83.83
2018-05-13T03:49:37.897Z,83.87
2018-05-13T03:50:09.150Z,83.68
2018-05-13T03:50:40.364Z,82.94
2018-05-13T03:51:11.767Z,82.98
2018-05-13T03:51:42.987Z,83.24
2018-05-13T03:52:14.220Z,83.41
2018-05-13T03:52:45.440Z,84.02
2018-05-13T03:53:16.753Z,83.86
2018-05-13T03:53:47.969Z,83.72
2018-05-13T03:54:19.177Z,83.91
2018-05-13T03:54:50.397Z,84.03
2018-05-13T03:55:21.613Z,84.13
2018-05-13T03:55:52.825Z,84.35
2018-05-13T03:56:24.142Z,84.38
2018-05-13T03:56:55.348Z,84.60
2018-05-13T03:57:26.565Z,84.50
2018-05-13T03:57:57.781Z,84.69
2018-05-13T03:58:28.989Z,84.68
2018-05-13T03:59:00.218Z,84.85
2018-05-13T03:59:31.474Z,84.93
2018-05-13T04:00:02.690Z,85.01
2018-05-13T04:00:33.911Z,84.91
2018-05-13T04:01:05.136Z,85.08
2018-05-13T04:01:36.345Z,85.33
2018-05-13T04:02:07.558Z,85.29
2018-05-13T04:02:38.760Z,85.34
2018-05-13T04:03:09.979Z,85.43
2018-05-13T04:03:41.233Z,85.46
2018-05-13T04:04:12.441Z,85.52
2018-05-13T04:04:43.653Z,85.53
2018-05-13T04:05:14.867Z,85.54
2018-05-13T04:05:46.088Z,85.80
2018-05-13T04:06:17.307Z,85.84
2018-05-13T04:06:48.569Z,86.13
2018-05-13T04:07:19.827Z,86.08
2018-05-13T04:07:51.097Z,86.12
2018-05-13T04:08:22.477Z,86.22
2018-05-13T04:08:54.593Z,86.31
2018-05-13T04:09:25.812Z,86.49
2018-05-13T04:09:57.018Z,86.21
2018-05-13T04:10:28.246Z,86.04
2018-05-13T04:10:59.510Z,85.77
2018-05-13T04:11:30.729Z,85.86
2018-05-13T04:12:02.598Z,85.95
2018-05-13T04:12:33.832Z,85.30
2018-05-13T04:13:05.086Z,85.04
2018-05-13T04:13:36.318Z,84.85
2018-05-13T04:14:07.569Z,85.00
2018-05-13T04:14:38.805Z,84.71
2018-05-13T04:15:10.053Z,84.57
2018-05-13T04:15:41.281Z,84.60
2018-05-13T04:16:13.315Z,84.68
2018-05-13T04:16:44.520Z,84.77
2018-05-13T04:17:15.724Z,84.62
2018-05-13T04:17:46.953Z,84.39
2018-05-13T04:18:18.228Z,84.31
2018-05-13T04:18:49.471Z,84.17
2018-05-13T04:19:20.712Z,84.38
2018-05-13T04:19:51.943Z,84.62
2018-05-13T04:20:23.168Z,84.55
2018-05-13T04:20:54.386Z,84.18
2018-05-13T04:21:25.603Z,84.14
2018-05-13T04:21:56.813Z,83.83
2018-05-13T04:22:28.041Z,83.26
2018-05-13T04:22:59.257Z,83.21
2018-05-13T04:23:30.513Z,83.41
2018-05-13T04:24:01.721Z,83.61
2018-05-13T04:24:32.918Z,83.79
2018-05-13T04:25:04.197Z,83.73
2018-05-13T04:25:35.409Z,83.66
2018-05-13T04:26:06.652Z,83.63
2018-05-13T04:26:37.857Z,83.62
2018-05-13T04:27:09.074Z,83.52
2018-05-13T04:27:40.276Z,83.40
2018-05-13T04:28:11.504Z,82.72
2018-05-13T04:28:42.717Z,81.48
2018-05-13T04:29:13.925Z,81.61
2018-05-13T04:29:45.145Z,81.96
2018-05-13T04:30:16.366Z,81.88
2018-05-13T04:30:47.651Z,81.92
2018-05-13T04:31:18.873Z,82.35
2018-05-13T04:31:50.075Z,82.38
2018-05-13T04:32:21.265Z,82.32
2018-05-13T04:32:52.471Z,82.31
2018-05-13T04:33:23.669Z,81.92
2018-05-13T04:33:54.935Z,82.05
2018-05-13T04:34:26.220Z,82.05
2018-05-13T04:34:57.492Z,81.67
2018-05-13T04:35:28.780Z,81.58
2018-05-13T04:36:00.048Z,81.54
2018-05-13T04:36:31.278Z,81.22
2018-05-13T04:37:02.502Z,81.16
2018-05-13T04:37:34.362Z,81.33
2018-05-13T04:38:05.589Z,81.45
2018-05-13T04:38:36.794Z,81.23
2018-05-13T04:39:08.005Z,80.83
2018-05-13T04:39:39.244Z,80.79
2018-05-13T04:40:10.461Z,80.45
2018-05-13T04:40:41.676Z,77.92
2018-05-13T04:41:12.894Z,77.43
2018-05-13T04:41:45.009Z,75.54
2018-05-13T04:42:16.288Z,74.87
2018-05-13T04:42:47.479Z,72.96
2018-05-13T04:43:18.683Z,72.29
2018-05-13T04:43:49.909Z,70.30
2018-05-13T04:44:21.098Z,68.94
2018-05-13T04:44:52.317Z,67.38
2018-05-13T04:45:24.634Z,66.39
2018-05-13T04:45:55.847Z,65.66
2018-05-13T04:46:27.073Z,63.57
2018-05-13T04:46:58.289Z,62.77
2018-05-13T04:47:29.574Z,62.28
2018-05-13T04:48:00.790Z,62.23
2018-05-13T04:48:32.009Z,61.85
2018-05-13T04:49:03.237Z,61.28
2018-05-13T04:49:35.433Z,60.68
2018-05-13T04:50:08.568Z,59.49
2018-05-13T04:50:39.773Z,58.36
2018-05-13T04:51:11.000Z,58.77
2018-05-13T04:51:42.217Z,58.48
2018-05-13T04:52:13.522Z,58.78
2018-05-13T04:52:44.749Z,57.43
2018-05-13T04:53:15.961Z,57.14
2018-05-13T04:53:47.220Z,55.67
2018-05-13T04:54:18.425Z,55.56
2018-05-13T04:54:49.761Z,55.85
2018-05-13T04:55:20.982Z,55.03
2018-05-13T04:55:52.198Z,55.54
2018-05-13T04:56:24.135Z,55.81
2018-05-13T04:56:55.379Z,56.28
2018-05-13T04:57:26.631Z,57.40
2018-05-13T04:57:58.912Z,59.46
2018-05-13T04:58:30.129Z,59.33
2018-05-13T04:59:01.326Z,59.62
2018-05-13T04:59:32.549Z,59.66
2018-05-13T05:00:03.783Z,59.85
2018-05-13T05:00:35.023Z,60.54
2018-05-13T05:01:06.273Z,60.97
2018-05-13T05:01:37.490Z,62.96
2018-05-13T05:02:09.761Z,63.23
2018-05-13T05:02:40.972Z,64.46
2018-05-13T05:03:12.205Z,65.24
2018-05-13T05:03:43.451Z,65.64
2018-05-13T05:04:14.694Z,66.27
2018-05-13T05:04:45.937Z,66.66
2018-05-13T05:05:17.176Z,66.10
2018-05-13T05:05:48.389Z,66.32
2018-05-13T05:06:19.659Z,66.06
2018-05-13T05:06:50.964Z,66.23
2018-05-13T05:07:22.873Z,66.04
2018-05-13T05:07:54.211Z,65.25
2018-05-13T05:08:25.425Z,63.49
2018-05-13T05:08:57.760Z,62.59
2018-05-13T05:09:28.949Z,61.27
2018-05-13T05:10:00.361Z,60.48
2018-05-13T05:10:31.573Z,58.77
2018-05-13T05:11:02.785Z,58.62
2018-05-13T05:11:34.032Z,58.77
2018-05-13T05:12:05.248Z,60.19
2018-05-13T05:12:36.462Z,61.46
2018-05-13T05:13:07.685Z,62.86
2018-05-13T05:13:38.979Z,64.10
2018-05-13T05:14:10.192Z,64.81
2018-05-13T05:14:42.258Z,66.97
2018-05-13T05:15:13.597Z,68.49
2018-05-13T05:15:44.815Z,68.08
2018-05-13T05:16:16.034Z,69.32
2018-05-13T05:16:47.258Z,71.07
2018-05-13T05:17:18.468Z,71.84
2018-05-13T05:17:49.665Z,71.40
2018-05-13T05:18:20.879Z,70.49
2018-05-13T05:18:52.093Z,69.12
2018-05-13T05:19:23.344Z,70.06
2018-05-13T05:19:54.563Z,70.69
2018-05-13T05:20:25.841Z,71.20
2018-05-13T05:20:57.045Z,71.71
2018-05-13T05:21:28.285Z,71.98
2018-05-13T05:21:59.537Z,70.19
2018-05-13T05:22:30.765Z,71.17
2018-05-13T05:23:02.003Z,71.92
2018-05-13T05:23:33.273Z,71.19
2018-05-13T05:24:05.203Z,72.06
2018-05-13T05:24:36.413Z,71.62
2018-05-13T05:25:07.659Z,72.07
2018-05-13T05:25:38.877Z,73.28
2018-05-13T05:26:10.086Z,73.65
2018-05-13T05:26:41.292Z,71.84
2018-05-13T05:27:12.541Z,72.43
2018-05-13T05:27:43.770Z,71.81
2018-05-13T05:28:15.597Z,71.62
2018-05-13T05:28:46.813Z,71.80
2018-05-13T05:29:18.021Z,71.68
2018-05-13T05:29:49.225Z,70.34
2018-05-13T05:30:20.433Z,70.49
2018-05-13T05:30:51.650Z,70.89
2018-05-13T05:31:23.644Z,69.70
2018-05-13T05:31:54.876Z,68.48
2018-05-13T05:32:26.145Z,68.80
2018-05-13T05:32:57.384Z,68.33
2018-05-13T05:33:28.651Z,67.65
2018-05-13T05:34:00.565Z,68.14
2018-05-13T05:34:31.821Z,69.35
2018-05-13T05:35:03.039Z,67.90
2018-05-13T05:35:34.258Z,69.30
2018-05-13T05:36:05.472Z,68.95
2018-05-13T05:36:36.681Z,69.53
2018-05-13T05:37:07.894Z,69.41
2018-05-13T05:37:39.109Z,70.24
2018-05-13T05:38:10.329Z,70.61
2018-05-13T05:38:41.581Z,69.70
2018-05-13T05:39:12.821Z,70.31
2018-05-13T05:39:44.036Z,69.61
2018-05-13T05:40:15.252Z,69.32
2018-05-13T05:40:46.457Z,70.29
2018-05-13T05:41:17.707Z,70.82
2018-05-13T05:41:48.921Z,70.55
2018-05-13T05:42:20.140Z,70.14
2018-05-13T05:42:51.394Z,71.02
2018-05-13T05:43:22.599Z,70.27
2018-05-13T05:43:53.921Z,69.53
2018-05-13T05:44:25.153Z,68.74
2018-05-13T05:44:56.396Z,68.74
2018-05-13T05:45:27.612Z,69.58
2018-05-13T05:45:58.857Z,69.69
2018-05-13T05:46:30.118Z,70.17
2018-05-13T05:47:01.333Z,69.21
2018-05-13T05:47:32.544Z,69.49
2018-05-13T05:48:03.757Z,70.05
2018-05-13T05:48:35.605Z,69.95
2018-05-13T05:49:06.816Z,68.57
2018-05-13T05:49:38.027Z,69.51
2018-05-13T05:50:09.222Z,67.37
2018-05-13T05:50:40.470Z,67.38
2018-05-13T05:51:11.673Z,68.09
2018-05-13T05:51:42.919Z,68.08
2018-05-13T05:52:14.134Z,67.38
2018-05-13T05:52:45.346Z,69.40
2018-05-13T05:53:16.713Z,67.84
2018-05-13T05:53:47.929Z,65.55
2018-05-13T05:54:19.143Z,65.17
2018-05-13T05:54:50.368Z,65.21
2018-05-13T05:55:21.584Z,64.57
2018-05-13T05:55:52.807Z,64.91
2018-05-13T05:56:24.015Z,65.36
2018-05-13T05:56:55.228Z,65.30
2018-05-13T05:57:26.439Z,65.39
2018-05-13T05:57:57.651Z,67.14
2018-05-13T05:58:28.940Z,66.13
2018-05-13T05:59:00.178Z,63.54
2018-05-13T05:59:31.385Z,63.12
2018-05-13T06:00:02.591Z,64.81
2018-05-13T06:00:33.810Z,65.38
2018-05-13T06:01:05.045Z,65.34
2018-05-13T06:01:36.269Z,63.32
2018-05-13T06:02:07.542Z,62.55
2018-05-13T06:02:38.769Z,63.33
2018-05-13T06:03:10.066Z,63.52
2018-05-13T06:03:41.322Z,62.20
2018-05-13T06:04:12.554Z,62.54
2018-05-13T06:04:43.816Z,64.57
2018-05-13T06:05:15.080Z,63.59
2018-05-13T06:05:46.302Z,64.48
2018-05-13T06:06:17.509Z,63.84
2018-05-13T06:06:48.724Z,64.86
2018-05-13T06:07:19.929Z,63.34
2018-05-13T06:07:51.136Z,62.75
2018-05-13T06:08:22.385Z,62.89
2018-05-13T06:08:53.606Z,63.68
2018-05-13T06:09:24.831Z,64.03
2018-05-13T06:09:56.049Z,63.43
2018-05-13T06:10:27.267Z,64.23
2018-05-13T06:10:58.498Z,62.07
2018-05-13T06:11:29.713Z,58.72
2018-05-13T06:12:00.929Z,61.83
2018-05-13T06:12:32.154Z,60.13
2018-05-13T06:13:03.411Z,58.57
2018-05-13T06:13:34.639Z,59.33
2018-05-13T06:14:05.862Z,61.13
2018-05-13T06:14:37.087Z,60.74
2018-05-13T06:15:08.315Z,60.52
2018-05-13T06:15:39.533Z,61.62
2018-05-13T06:16:10.736Z,62.33
2018-05-13T06:16:41.971Z,63.79
2018-05-13T06:17:13.217Z,62.48
2018-05-13T06:17:45.183Z,60.28
2018-05-13T06:18:16.432Z,61.83
2018-05-13T06:18:47.685Z,63.03
2018-05-13T06:19:18.922Z,62.17
2018-05-13T06:19:50.174Z,63.28
2018-05-13T06:20:21.394Z,62.50
2018-05-13T06:20:52.694Z,60.94
2018-05-13T06:21:23.909Z,60.62
2018-05-13T06:21:55.139Z,60.11
2018-05-13T06:22:26.401Z,62.07
2018-05-13T06:22:57.600Z,62.27
2018-05-13T06:23:28.858Z,61.91
2018-05-13T06:24:00.069Z,61.37
2018-05-13T06:24:31.334Z,61.10
2018-05-13T06:25:02.533Z,63.66
2018-05-13T06:25:33.770Z,61.45
2018-05-13T06:26:05.069Z,60.76
2018-05-13T06:26:36.276Z,60.60
2018-05-13T06:27:07.502Z,58.58
2018-05-13T06:27:38.762Z,58.31
2018-05-13T06:28:09.978Z,59.05
2018-05-13T06:28:41.197Z,58.27
2018-05-13T06:29:12.406Z,57.46
2018-05-13T06:29:43.621Z,58.35
2018-05-13T06:30:14.832Z,57.67
2018-05-13T06:30:46.048Z,56.97
2018-05-13T06:31:17.261Z,55.81
2018-05-13T06:31:48.471Z,57.51
2018-05-13T06:32:19.681Z,59.77
2018-05-13T06:32:50.952Z,58.20
2018-05-13T06:33:22.175Z,58.04
2018-05-13T06:33:53.403Z,56.09
2018-05-13T06:34:24.599Z,57.03
2018-05-13T06:34:56.322Z,57.76
2018-05-13T06:35:27.536Z,57.76
2018-05-13T06:35:58.754Z,57.11
2018-05-13T06:36:30.002Z,57.32
2018-05-13T06:37:01.221Z,57.35
2018-05-13T06:37:32.447Z,57.01
2018-05-13T06:38:03.686Z,56.48
2018-05-13T06:38:34.928Z,57.37
2018-05-13T06:39:06.161Z,58.48
2018-05-13T06:39:37.466Z,60.44
2018-05-13T06:40:08.628Z,59.62
2018-05-13T06:40:39.886Z,59.87
2018-05-13T06:41:11.103Z,59.10
2018-05-13T06:41:42.296Z,56.52
2018-05-13T06:42:13.492Z,60.42
2018-05-13T06:42:44.720Z,60.26